sensor_id;sensor_type;location;lat;lon;timestamp;pressure;altitude;pressure_sealevel;temperature
10058;BMP180;5068;51.286;7.518;2023-02-12T00:00:30;101448.00;;;9.90
10058;BMP180;5068;51.286;7.518;2023-02-12T00:02:03;101446.00;;;10.00
10058;BMP180;5068;51.286;7.518;2023-02-12T00:03:38;101448.00;;;10.00
10058;BMP180;5068;51.286;7.518;2023-02-12T00:05:12;101449.00;;;10.00
10058;BMP180;5068;51.286;7.518;2023-02-12T00:06:47;101450.00;;;10.00
10058;BMP180;5068;51.286;7.518;2023-02-12T00:08:20;101444.00;;;10.00
10058;BMP180;5068;51.286;7.518;2023-02-12T00:09:55;101452.00;;;9.90
10058;BMP180;5068;51.286;7.518;2023-02-12T00:11:28;101443.00;;;9.90
10058;BMP180;5068;51.286;7.518;2023-02-12T00:13:01;101446.00;;;9.90
10058;BMP180;5068;51.286;7.518;2023-02-12T00:14:36;101441.00;;;9.90
10058;BMP180;5068;51.286;7.518;2023-02-12T00:16:11;101438.00;;;9.90
10058;BMP180;5068;51.286;7.518;2023-02-12T00:17:45;101440.00;;;9.90
10058;BMP180;5068;51.286;7.518;2023-02-12T00:19:18;101437.00;;;9.90
10058;BMP180;5068;51.286;7.518;2023-02-12T00:20:51;101440.00;;;9.90
10058;BMP180;5068;51.286;7.518;2023-02-12T00:22:24;101433.00;;;9.90
10058;BMP180;5068;51.286;7.518;2023-02-12T00:23:57;101422.00;;;9.90
10058;BMP180;5068;51.286;7.518;2023-02-12T00:25:32;101435.00;;;9.90
10058;BMP180;5068;51.286;7.518;2023-02-12T00:27:05;101422.00;;;9.90
10058;BMP180;5068;51.286;7.518;2023-02-12T00:28:39;101426.00;;;9.90
10058;BMP180;5068;51.286;7.518;2023-02-12T00:30:13;101431.00;;;10.00
10058;BMP180;5068;51.286;7.518;2023-02-12T00:31:46;101436.00;;;9.90
10058;BMP180;5068;51.286;7.518;2023-02-12T00:33:20;101431.00;;;10.00
10058;BMP180;5068;51.286;7.518;2023-02-12T00:34:53;101435.00;;;10.00
10058;BMP180;5068;51.286;7.518;2023-02-12T00:36:29;101440.00;;;9.90
10058;BMP180;5068;51.286;7.518;2023-02-12T00:38:03;101432.00;;;9.90
10058;BMP180;5068;51.286;7.518;2023-02-12T00:39:36;101426.00;;;9.90
10058;BMP180;5068;51.286;7.518;2023-02-12T00:41:11;101428.00;;;9.90
10058;BMP180;5068;51.286;7.518;2023-02-12T00:42:44;101435.00;;;9.90
10058;BMP180;5068;51.286;7.518;2023-02-12T00:44:18;101432.00;;;9.90
10058;BMP180;5068;51.286;7.518;2023-02-12T00:45:51;101433.00;;;9.90
10058;BMP180;5068;51.286;7.518;2023-02-12T00:47:25;101439.00;;;9.90
10058;BMP180;5068;51.286;7.518;2023-02-12T00:48:58;101428.00;;;9.90
10058;BMP180;5068;51.286;7.518;2023-02-12T00:50:31;101439.00;;;9.90
10058;BMP180;5068;51.286;7.518;2023-02-12T00:52:04;101425.00;;;9.90
10058;BMP180;5068;51.286;7.518;2023-02-12T00:53:37;101434.00;;;9.90
10058;BMP180;5068;51.286;7.518;2023-02-12T00:55:11;101435.00;;;9.90
10058;BMP180;5068;51.286;7.518;2023-02-12T00:56:46;101435.00;;;10.00
10058;BMP180;5068;51.286;7.518;2023-02-12T00:58:19;101441.00;;;10.00
10058;BMP180;5068;51.286;7.518;2023-02-12T00:59:51;101438.00;;;10.00
10058;BMP180;5068;51.286;7.518;2023-02-12T01:01:24;101443.00;;;10.00
10058;BMP180;5068;51.286;7.518;2023-02-12T01:02:58;101442.00;;;9.90
10058;BMP180;5068;51.286;7.518;2023-02-12T01:04:30;101441.00;;;9.90
10058;BMP180;5068;51.286;7.518;2023-02-12T01:06:04;101437.00;;;9.90
10058;BMP180;5068;51.286;7.518;2023-02-12T01:07:37;101440.00;;;9.90
10058;BMP180;5068;51.286;7.518;2023-02-12T01:09:12;101444.00;;;9.90
10058;BMP180;5068;51.286;7.518;2023-02-12T01:10:54;101437.00;;;9.90
10058;BMP180;5068;51.286;7.518;2023-02-12T01:12:30;101444.00;;;9.90
10058;BMP180;5068;51.286;7.518;2023-02-12T01:14:04;101445.00;;;9.90
10058;BMP180;5068;51.286;7.518;2023-02-12T01:15:37;101451.00;;;9.90
10058;BMP180;5068;51.286;7.518;2023-02-12T01:17:10;101439.00;;;9.90
10058;BMP180;5068;51.286;7.518;2023-02-12T01:18:45;101447.00;;;9.90
10058;BMP180;5068;51.286;7.518;2023-02-12T01:20:22;101450.00;;;9.90
10058;BMP180;5068;51.286;7.518;2023-02-12T01:21:54;101449.00;;;9.90
10058;BMP180;5068;51.286;7.518;2023-02-12T01:23:27;101449.00;;;9.80
10058;BMP180;5068;51.286;7.518;2023-02-12T01:25:00;101443.00;;;9.90
10058;BMP180;5068;51.286;7.518;2023-02-12T01:26:33;101441.00;;;9.90
10058;BMP180;5068;51.286;7.518;2023-02-12T01:28:09;101430.00;;;9.90
10058;BMP180;5068;51.286;7.518;2023-02-12T01:29:41;101432.00;;;9.90
10058;BMP180;5068;51.286;7.518;2023-02-12T01:31:18;101439.00;;;9.90
10058;BMP180;5068;51.286;7.518;2023-02-12T01:32:54;101438.00;;;9.90
10058;BMP180;5068;51.286;7.518;2023-02-12T01:34:27;101434.00;;;9.90
10058;BMP180;5068;51.286;7.518;2023-02-12T01:36:03;101431.00;;;9.90
10058;BMP180;5068;51.286;7.518;2023-02-12T01:37:36;101436.00;;;9.90
10058;BMP180;5068;51.286;7.518;2023-02-12T01:39:11;101430.00;;;9.90
10058;BMP180;5068;51.286;7.518;2023-02-12T01:40:44;101420.00;;;9.90
10058;BMP180;5068;51.286;7.518;2023-02-12T01:42:17;101434.00;;;9.90
10058;BMP180;5068;51.286;7.518;2023-02-12T01:44:15;101437.00;;;9.90
10058;BMP180;5068;51.286;7.518;2023-02-12T01:45:51;101429.00;;;9.80
10058;BMP180;5068;51.286;7.518;2023-02-12T01:47:26;101435.00;;;9.80
10058;BMP180;5068;51.286;7.518;2023-02-12T01:49:01;101439.00;;;9.90
10058;BMP180;5068;51.286;7.518;2023-02-12T01:50:34;101439.00;;;9.90
10058;BMP180;5068;51.286;7.518;2023-02-12T01:52:15;101434.00;;;9.90
10058;BMP180;5068;51.286;7.518;2023-02-12T01:53:53;101429.00;;;9.80
10058;BMP180;5068;51.286;7.518;2023-02-12T01:55:26;101425.00;;;9.80
10058;BMP180;5068;51.286;7.518;2023-02-12T01:57:02;101431.00;;;9.80
10058;BMP180;5068;51.286;7.518;2023-02-12T01:58:40;101437.00;;;9.80
10058;BMP180;5068;51.286;7.518;2023-02-12T02:00:21;101430.00;;;9.80
10058;BMP180;5068;51.286;7.518;2023-02-12T02:01:55;101422.00;;;9.80
10058;BMP180;5068;51.286;7.518;2023-02-12T02:03:30;101426.00;;;9.80
10058;BMP180;5068;51.286;7.518;2023-02-12T02:05:04;101416.00;;;9.90
10058;BMP180;5068;51.286;7.518;2023-02-12T02:06:46;101431.00;;;9.80
10058;BMP180;5068;51.286;7.518;2023-02-12T02:08:22;101424.00;;;9.80
10058;BMP180;5068;51.286;7.518;2023-02-12T02:09:56;101424.00;;;9.80
10058;BMP180;5068;51.286;7.518;2023-02-12T02:11:33;101434.00;;;9.80
10058;BMP180;5068;51.286;7.518;2023-02-12T02:13:24;101436.00;;;9.80
10058;BMP180;5068;51.286;7.518;2023-02-12T02:15:17;101435.00;;;9.80
10058;BMP180;5068;51.286;7.518;2023-02-12T02:16:58;101435.00;;;9.70
10058;BMP180;5068;51.286;7.518;2023-02-12T02:18:42;101427.00;;;9.70
10058;BMP180;5068;51.286;7.518;2023-02-12T02:23:29;101421.00;;;9.60
10058;BMP180;5068;51.286;7.518;2023-02-12T02:27:41;101421.00;;;9.50
10058;BMP180;5068;51.286;7.518;2023-02-12T02:29:40;101427.00;;;9.50
10058;BMP180;5068;51.286;7.518;2023-02-12T02:31:24;101421.00;;;9.50
10058;BMP180;5068;51.286;7.518;2023-02-12T02:33:21;101414.00;;;9.60
10058;BMP180;5068;51.286;7.518;2023-02-12T02:35:06;101423.00;;;9.60
10058;BMP180;5068;51.286;7.518;2023-02-12T02:36:48;101416.00;;;9.60
10058;BMP180;5068;51.286;7.518;2023-02-12T02:38:40;101415.00;;;9.60
10058;BMP180;5068;51.286;7.518;2023-02-12T02:40:19;101413.00;;;9.60
10058;BMP180;5068;51.286;7.518;2023-02-12T02:42:00;101414.00;;;9.60
10058;BMP180;5068;51.286;7.518;2023-02-12T02:43:42;101408.00;;;9.70
10058;BMP180;5068;51.286;7.518;2023-02-12T02:45:24;101413.00;;;9.70
10058;BMP180;5068;51.286;7.518;2023-02-12T02:47:05;101411.00;;;9.70
10058;BMP180;5068;51.286;7.518;2023-02-12T02:48:45;101409.00;;;9.70
10058;BMP180;5068;51.286;7.518;2023-02-12T02:50:25;101409.00;;;9.70
10058;BMP180;5068;51.286;7.518;2023-02-12T02:52:07;101411.00;;;9.70
10058;BMP180;5068;51.286;7.518;2023-02-12T02:53:46;101412.00;;;9.70
10058;BMP180;5068;51.286;7.518;2023-02-12T02:55:24;101417.00;;;9.70
10058;BMP180;5068;51.286;7.518;2023-02-12T02:57:17;101399.00;;;9.70
10058;BMP180;5068;51.286;7.518;2023-02-12T02:58:57;101407.00;;;9.70
10058;BMP180;5068;51.286;7.518;2023-02-12T03:00:36;101409.00;;;9.60
10058;BMP180;5068;51.286;7.518;2023-02-12T03:02:19;101407.00;;;9.60
10058;BMP180;5068;51.286;7.518;2023-02-12T03:03:59;101407.00;;;9.60
10058;BMP180;5068;51.286;7.518;2023-02-12T03:05:42;101411.00;;;9.60
10058;BMP180;5068;51.286;7.518;2023-02-12T03:07:20;101405.00;;;9.60
10058;BMP180;5068;51.286;7.518;2023-02-12T03:09:00;101397.00;;;9.50
10058;BMP180;5068;51.286;7.518;2023-02-12T03:10:39;101401.00;;;9.60
10058;BMP180;5068;51.286;7.518;2023-02-12T03:12:18;101408.00;;;9.60
10058;BMP180;5068;51.286;7.518;2023-02-12T03:13:58;101408.00;;;9.60
10058;BMP180;5068;51.286;7.518;2023-02-12T03:15:39;101419.00;;;9.60
10058;BMP180;5068;51.286;7.518;2023-02-12T03:17:21;101412.00;;;9.60
10058;BMP180;5068;51.286;7.518;2023-02-12T03:19:02;101408.00;;;9.60
10058;BMP180;5068;51.286;7.518;2023-02-12T03:20:44;101403.00;;;9.60
10058;BMP180;5068;51.286;7.518;2023-02-12T03:22:27;101395.00;;;9.60
10058;BMP180;5068;51.286;7.518;2023-02-12T03:24:11;101398.00;;;9.60
10058;BMP180;5068;51.286;7.518;2023-02-12T03:25:54;101405.00;;;9.60
10058;BMP180;5068;51.286;7.518;2023-02-12T03:27:33;101397.00;;;9.60
10058;BMP180;5068;51.286;7.518;2023-02-12T03:29:10;101403.00;;;9.60
10058;BMP180;5068;51.286;7.518;2023-02-12T03:30:49;101398.00;;;9.70
10058;BMP180;5068;51.286;7.518;2023-02-12T03:32:32;101396.00;;;9.70
10058;BMP180;5068;51.286;7.518;2023-02-12T03:34:17;101401.00;;;9.70
10058;BMP180;5068;51.286;7.518;2023-02-12T03:36:01;101391.00;;;9.70
10058;BMP180;5068;51.286;7.518;2023-02-12T03:37:42;101399.00;;;9.70
10058;BMP180;5068;51.286;7.518;2023-02-12T03:39:29;101396.00;;;9.70
10058;BMP180;5068;51.286;7.518;2023-02-12T03:41:11;101390.00;;;9.70
10058;BMP180;5068;51.286;7.518;2023-02-12T03:42:56;101400.00;;;9.70
10058;BMP180;5068;51.286;7.518;2023-02-12T03:44:46;101401.00;;;9.70
10058;BMP180;5068;51.286;7.518;2023-02-12T03:46:26;101397.00;;;9.70
10058;BMP180;5068;51.286;7.518;2023-02-12T03:48:10;101402.00;;;9.80
10058;BMP180;5068;51.286;7.518;2023-02-12T03:49:54;101414.00;;;9.70
10058;BMP180;5068;51.286;7.518;2023-02-12T03:51:36;101407.00;;;9.70
10058;BMP180;5068;51.286;7.518;2023-02-12T03:53:10;101406.00;;;9.70
10058;BMP180;5068;51.286;7.518;2023-02-12T03:54:44;101407.00;;;9.70
10058;BMP180;5068;51.286;7.518;2023-02-12T03:56:23;101415.00;;;9.70
10058;BMP180;5068;51.286;7.518;2023-02-12T03:58:02;101411.00;;;9.70
10058;BMP180;5068;51.286;7.518;2023-02-12T03:59:38;101411.00;;;9.70
10058;BMP180;5068;51.286;7.518;2023-02-12T04:01:13;101406.00;;;9.70
10058;BMP180;5068;51.286;7.518;2023-02-12T04:02:47;101402.00;;;9.70
10058;BMP180;5068;51.286;7.518;2023-02-12T04:04:23;101418.00;;;9.70
10058;BMP180;5068;51.286;7.518;2023-02-12T04:05:57;101418.00;;;9.70
10058;BMP180;5068;51.286;7.518;2023-02-12T04:07:30;101415.00;;;9.70
10058;BMP180;5068;51.286;7.518;2023-02-12T04:09:10;101420.00;;;9.70
10058;BMP180;5068;51.286;7.518;2023-02-12T04:10:59;101416.00;;;9.70
10058;BMP180;5068;51.286;7.518;2023-02-12T04:12:43;101416.00;;;9.70
10058;BMP180;5068;51.286;7.518;2023-02-12T04:14:26;101418.00;;;9.70
10058;BMP180;5068;51.286;7.518;2023-02-12T04:16:16;101414.00;;;9.70
10058;BMP180;5068;51.286;7.518;2023-02-12T04:18:00;101428.00;;;9.70
10058;BMP180;5068;51.286;7.518;2023-02-12T04:19:49;101416.00;;;9.70
10058;BMP180;5068;51.286;7.518;2023-02-12T04:21:43;101423.00;;;9.60
10058;BMP180;5068;51.286;7.518;2023-02-12T04:23:46;101422.00;;;9.60
10058;BMP180;5068;51.286;7.518;2023-02-12T04:25:35;101426.00;;;9.60
10058;BMP180;5068;51.286;7.518;2023-02-12T04:27:21;101421.00;;;9.60
10058;BMP180;5068;51.286;7.518;2023-02-12T04:29:07;101425.00;;;9.60
10058;BMP180;5068;51.286;7.518;2023-02-12T04:30:53;101426.00;;;9.60
10058;BMP180;5068;51.286;7.518;2023-02-12T04:32:38;101430.00;;;9.60
10058;BMP180;5068;51.286;7.518;2023-02-12T04:34:17;101438.00;;;9.50
10058;BMP180;5068;51.286;7.518;2023-02-12T04:35:59;101438.00;;;9.60
10058;BMP180;5068;51.286;7.518;2023-02-12T04:37:40;101434.00;;;9.60
10058;BMP180;5068;51.286;7.518;2023-02-12T04:39:20;101449.00;;;9.60
10058;BMP180;5068;51.286;7.518;2023-02-12T04:40:54;101436.00;;;9.50
10058;BMP180;5068;51.286;7.518;2023-02-12T04:42:27;101439.00;;;9.50
10058;BMP180;5068;51.286;7.518;2023-02-12T04:44:14;101445.00;;;9.50
10058;BMP180;5068;51.286;7.518;2023-02-12T04:45:47;101449.00;;;9.50
10058;BMP180;5068;51.286;7.518;2023-02-12T04:47:21;101445.00;;;9.50
10058;BMP180;5068;51.286;7.518;2023-02-12T04:48:57;101441.00;;;9.50
10058;BMP180;5068;51.286;7.518;2023-02-12T04:50:38;101447.00;;;9.50
10058;BMP180;5068;51.286;7.518;2023-02-12T04:52:13;101451.00;;;9.50
10058;BMP180;5068;51.286;7.518;2023-02-12T04:53:49;101448.00;;;9.40
10058;BMP180;5068;51.286;7.518;2023-02-12T04:55:22;101453.00;;;9.40
10058;BMP180;5068;51.286;7.518;2023-02-12T04:56:55;101439.00;;;9.40
10058;BMP180;5068;51.286;7.518;2023-02-12T04:58:28;101439.00;;;9.40
10058;BMP180;5068;51.286;7.518;2023-02-12T05:00:03;101451.00;;;9.40
10058;BMP180;5068;51.286;7.518;2023-02-12T05:01:41;101452.00;;;9.40
10058;BMP180;5068;51.286;7.518;2023-02-12T05:03:15;101452.00;;;9.40
10058;BMP180;5068;51.286;7.518;2023-02-12T05:04:48;101450.00;;;9.40
10058;BMP180;5068;51.286;7.518;2023-02-12T05:06:22;101442.00;;;9.40
10058;BMP180;5068;51.286;7.518;2023-02-12T05:07:56;101454.00;;;9.40
10058;BMP180;5068;51.286;7.518;2023-02-12T05:09:29;101446.00;;;9.40
10058;BMP180;5068;51.286;7.518;2023-02-12T05:11:04;101442.00;;;9.40
10058;BMP180;5068;51.286;7.518;2023-02-12T05:12:37;101455.00;;;9.40
10058;BMP180;5068;51.286;7.518;2023-02-12T05:14:11;101450.00;;;9.40
10058;BMP180;5068;51.286;7.518;2023-02-12T05:15:44;101444.00;;;9.40
10058;BMP180;5068;51.286;7.518;2023-02-12T05:17:17;101458.00;;;9.50
10058;BMP180;5068;51.286;7.518;2023-02-12T05:18:53;101445.00;;;9.50
10058;BMP180;5068;51.286;7.518;2023-02-12T05:20:26;101452.00;;;9.50
10058;BMP180;5068;51.286;7.518;2023-02-12T05:22:00;101449.00;;;9.50
10058;BMP180;5068;51.286;7.518;2023-02-12T05:23:37;101452.00;;;9.50
10058;BMP180;5068;51.286;7.518;2023-02-12T05:25:11;101457.00;;;9.50
10058;BMP180;5068;51.286;7.518;2023-02-12T05:26:44;101456.00;;;9.50
10058;BMP180;5068;51.286;7.518;2023-02-12T05:28:18;101459.00;;;9.40
10058;BMP180;5068;51.286;7.518;2023-02-12T05:29:50;101460.00;;;9.40
10058;BMP180;5068;51.286;7.518;2023-02-12T05:31:24;101467.00;;;9.40
10058;BMP180;5068;51.286;7.518;2023-02-12T05:32:56;101462.00;;;9.40
10058;BMP180;5068;51.286;7.518;2023-02-12T05:34:31;101462.00;;;9.50
10058;BMP180;5068;51.286;7.518;2023-02-12T05:36:07;101463.00;;;9.50
10058;BMP180;5068;51.286;7.518;2023-02-12T05:37:41;101478.00;;;9.50
10058;BMP180;5068;51.286;7.518;2023-02-12T05:39:16;101475.00;;;9.50
10058;BMP180;5068;51.286;7.518;2023-02-12T05:40:49;101468.00;;;9.50
10058;BMP180;5068;51.286;7.518;2023-02-12T05:42:21;101462.00;;;9.50
10058;BMP180;5068;51.286;7.518;2023-02-12T05:43:54;101472.00;;;9.50
10058;BMP180;5068;51.286;7.518;2023-02-12T05:45:27;101477.00;;;9.50
10058;BMP180;5068;51.286;7.518;2023-02-12T05:47:01;101468.00;;;9.50
10058;BMP180;5068;51.286;7.518;2023-02-12T05:48:34;101463.00;;;9.50
10058;BMP180;5068;51.286;7.518;2023-02-12T05:50:09;101471.00;;;9.50
10058;BMP180;5068;51.286;7.518;2023-02-12T05:51:42;101473.00;;;9.50
10058;BMP180;5068;51.286;7.518;2023-02-12T05:53:16;101463.00;;;9.50
10058;BMP180;5068;51.286;7.518;2023-02-12T05:54:49;101471.00;;;9.50
10058;BMP180;5068;51.286;7.518;2023-02-12T05:56:26;101475.00;;;9.50
10058;BMP180;5068;51.286;7.518;2023-02-12T05:57:59;101474.00;;;9.60
10058;BMP180;5068;51.286;7.518;2023-02-12T05:59:33;101468.00;;;9.50
10058;BMP180;5068;51.286;7.518;2023-02-12T06:01:11;101459.00;;;9.50
10058;BMP180;5068;51.286;7.518;2023-02-12T06:02:44;101468.00;;;9.50
10058;BMP180;5068;51.286;7.518;2023-02-12T06:04:22;101466.00;;;9.50
10058;BMP180;5068;51.286;7.518;2023-02-12T06:05:56;101470.00;;;9.50
10058;BMP180;5068;51.286;7.518;2023-02-12T06:07:29;101471.00;;;9.50
10058;BMP180;5068;51.286;7.518;2023-02-12T06:09:03;101473.00;;;9.50
10058;BMP180;5068;51.286;7.518;2023-02-12T06:10:37;101475.00;;;9.40
10058;BMP180;5068;51.286;7.518;2023-02-12T06:12:11;101474.00;;;9.50
10058;BMP180;5068;51.286;7.518;2023-02-12T06:13:44;101472.00;;;9.50
10058;BMP180;5068;51.286;7.518;2023-02-12T06:15:17;101474.00;;;9.50
10058;BMP180;5068;51.286;7.518;2023-02-12T06:16:51;101469.00;;;9.40
10058;BMP180;5068;51.286;7.518;2023-02-12T06:18:25;101470.00;;;9.40
10058;BMP180;5068;51.286;7.518;2023-02-12T06:19:57;101477.00;;;9.40
10058;BMP180;5068;51.286;7.518;2023-02-12T06:21:31;101479.00;;;9.40
10058;BMP180;5068;51.286;7.518;2023-02-12T06:23:05;101471.00;;;9.40
10058;BMP180;5068;51.286;7.518;2023-02-12T06:24:38;101484.00;;;9.40
10058;BMP180;5068;51.286;7.518;2023-02-12T06:26:13;101484.00;;;9.40
10058;BMP180;5068;51.286;7.518;2023-02-12T06:27:47;101483.00;;;9.40
10058;BMP180;5068;51.286;7.518;2023-02-12T06:29:21;101479.00;;;9.40
10058;BMP180;5068;51.286;7.518;2023-02-12T06:30:54;101476.00;;;9.40
10058;BMP180;5068;51.286;7.518;2023-02-12T06:32:27;101479.00;;;9.40
10058;BMP180;5068;51.286;7.518;2023-02-12T06:34:04;101470.00;;;9.40
10058;BMP180;5068;51.286;7.518;2023-02-12T06:35:38;101474.00;;;9.40
10058;BMP180;5068;51.286;7.518;2023-02-12T06:37:11;101487.00;;;9.40
10058;BMP180;5068;51.286;7.518;2023-02-12T06:38:45;101483.00;;;9.40
10058;BMP180;5068;51.286;7.518;2023-02-12T06:40:18;101484.00;;;9.50
10058;BMP180;5068;51.286;7.518;2023-02-12T06:41:53;101491.00;;;9.50
10058;BMP180;5068;51.286;7.518;2023-02-12T06:43:27;101488.00;;;9.40
10058;BMP180;5068;51.286;7.518;2023-02-12T06:45:00;101494.00;;;9.50
10058;BMP180;5068;51.286;7.518;2023-02-12T06:46:34;101479.00;;;9.50
10058;BMP180;5068;51.286;7.518;2023-02-12T06:48:08;101494.00;;;9.50
10058;BMP180;5068;51.286;7.518;2023-02-12T06:49:41;101495.00;;;9.40
10058;BMP180;5068;51.286;7.518;2023-02-12T06:51:17;101496.00;;;9.50
10058;BMP180;5068;51.286;7.518;2023-02-12T06:52:52;101487.00;;;9.50
10058;BMP180;5068;51.286;7.518;2023-02-12T06:54:25;101485.00;;;9.50
10058;BMP180;5068;51.286;7.518;2023-02-12T06:56:00;101498.00;;;9.50
10058;BMP180;5068;51.286;7.518;2023-02-12T06:57:34;101504.00;;;9.50
10058;BMP180;5068;51.286;7.518;2023-02-12T06:59:13;101503.00;;;9.50
10058;BMP180;5068;51.286;7.518;2023-02-12T07:00:47;101509.00;;;9.50
10058;BMP180;5068;51.286;7.518;2023-02-12T07:02:20;101507.00;;;9.50
10058;BMP180;5068;51.286;7.518;2023-02-12T07:03:58;101518.00;;;9.50
10058;BMP180;5068;51.286;7.518;2023-02-12T07:05:31;101512.00;;;9.50
10058;BMP180;5068;51.286;7.518;2023-02-12T07:07:08;101512.00;;;9.50
10058;BMP180;5068;51.286;7.518;2023-02-12T07:08:42;101513.00;;;9.50
10058;BMP180;5068;51.286;7.518;2023-02-12T07:10:16;101517.00;;;9.50
10058;BMP180;5068;51.286;7.518;2023-02-12T07:11:49;101522.00;;;9.50
10058;BMP180;5068;51.286;7.518;2023-02-12T07:13:24;101521.00;;;9.50
10058;BMP180;5068;51.286;7.518;2023-02-12T07:14:56;101512.00;;;9.50
10058;BMP180;5068;51.286;7.518;2023-02-12T07:16:30;101531.00;;;9.50
10058;BMP180;5068;51.286;7.518;2023-02-12T07:18:03;101520.00;;;9.40
10058;BMP180;5068;51.286;7.518;2023-02-12T07:19:38;101525.00;;;9.40
10058;BMP180;5068;51.286;7.518;2023-02-12T07:21:13;101524.00;;;9.40
10058;BMP180;5068;51.286;7.518;2023-02-12T07:22:47;101521.00;;;9.40
10058;BMP180;5068;51.286;7.518;2023-02-12T07:24:20;101512.00;;;9.40
10058;BMP180;5068;51.286;7.518;2023-02-12T07:25:54;101514.00;;;9.40
10058;BMP180;5068;51.286;7.518;2023-02-12T07:27:29;101522.00;;;9.40
10058;BMP180;5068;51.286;7.518;2023-02-12T07:29:04;101520.00;;;9.40
10058;BMP180;5068;51.286;7.518;2023-02-12T07:30:40;101523.00;;;9.40
10058;BMP180;5068;51.286;7.518;2023-02-12T07:32:13;101528.00;;;9.40
10058;BMP180;5068;51.286;7.518;2023-02-12T07:33:47;101526.00;;;9.40
10058;BMP180;5068;51.286;7.518;2023-02-12T07:35:21;101522.00;;;9.40
10058;BMP180;5068;51.286;7.518;2023-02-12T07:36:54;101525.00;;;9.40
10058;BMP180;5068;51.286;7.518;2023-02-12T07:38:28;101527.00;;;9.40
10058;BMP180;5068;51.286;7.518;2023-02-12T07:40:00;101531.00;;;9.50
10058;BMP180;5068;51.286;7.518;2023-02-12T07:41:35;101544.00;;;9.50
10058;BMP180;5068;51.286;7.518;2023-02-12T07:43:08;101547.00;;;9.50
10058;BMP180;5068;51.286;7.518;2023-02-12T07:44:45;101542.00;;;9.50
10058;BMP180;5068;51.286;7.518;2023-02-12T07:46:22;101528.00;;;9.50
10058;BMP180;5068;51.286;7.518;2023-02-12T07:47:57;101545.00;;;9.60
10058;BMP180;5068;51.286;7.518;2023-02-12T07:49:30;101549.00;;;9.60
10058;BMP180;5068;51.286;7.518;2023-02-12T07:51:06;101547.00;;;9.60
10058;BMP180;5068;51.286;7.518;2023-02-12T07:52:40;101552.00;;;9.60
10058;BMP180;5068;51.286;7.518;2023-02-12T07:54:14;101540.00;;;9.60
10058;BMP180;5068;51.286;7.518;2023-02-12T07:55:47;101532.00;;;9.60
10058;BMP180;5068;51.286;7.518;2023-02-12T07:57:21;101534.00;;;9.70
10058;BMP180;5068;51.286;7.518;2023-02-12T07:58:54;101539.00;;;9.70
10058;BMP180;5068;51.286;7.518;2023-02-12T08:00:29;101546.00;;;9.70
10058;BMP180;5068;51.286;7.518;2023-02-12T08:02:02;101534.00;;;9.70
10058;BMP180;5068;51.286;7.518;2023-02-12T08:03:35;101540.00;;;9.80
10058;BMP180;5068;51.286;7.518;2023-02-12T08:05:09;101552.00;;;9.80
10058;BMP180;5068;51.286;7.518;2023-02-12T08:06:44;101541.00;;;9.80
10058;BMP180;5068;51.286;7.518;2023-02-12T08:08:17;101543.00;;;9.80
10058;BMP180;5068;51.286;7.518;2023-02-12T08:09:51;101548.00;;;9.90
10058;BMP180;5068;51.286;7.518;2023-02-12T08:11:26;101557.00;;;9.90
10058;BMP180;5068;51.286;7.518;2023-02-12T08:12:58;101549.00;;;9.90
10058;BMP180;5068;51.286;7.518;2023-02-12T08:14:32;101551.00;;;9.90
10058;BMP180;5068;51.286;7.518;2023-02-12T08:16:09;101544.00;;;9.90
10058;BMP180;5068;51.286;7.518;2023-02-12T08:17:41;101549.00;;;10.00
10058;BMP180;5068;51.286;7.518;2023-02-12T08:19:15;101558.00;;;10.00
10058;BMP180;5068;51.286;7.518;2023-02-12T08:20:53;101547.00;;;10.00
10058;BMP180;5068;51.286;7.518;2023-02-12T08:22:26;101541.00;;;10.00
10058;BMP180;5068;51.286;7.518;2023-02-12T08:24:00;101547.00;;;10.00
10058;BMP180;5068;51.286;7.518;2023-02-12T08:25:34;101555.00;;;10.00
10058;BMP180;5068;51.286;7.518;2023-02-12T08:27:07;101552.00;;;10.10
10058;BMP180;5068;51.286;7.518;2023-02-12T08:28:43;101555.00;;;10.10
10058;BMP180;5068;51.286;7.518;2023-02-12T08:30:16;101553.00;;;10.10
10058;BMP180;5068;51.286;7.518;2023-02-12T08:31:56;101557.00;;;10.10
10058;BMP180;5068;51.286;7.518;2023-02-12T08:33:30;101555.00;;;10.10
10058;BMP180;5068;51.286;7.518;2023-02-12T08:35:03;101552.00;;;10.20
10058;BMP180;5068;51.286;7.518;2023-02-12T08:36:38;101558.00;;;10.20
10058;BMP180;5068;51.286;7.518;2023-02-12T08:38:11;101559.00;;;10.20
10058;BMP180;5068;51.286;7.518;2023-02-12T08:39:45;101552.00;;;10.20
10058;BMP180;5068;51.286;7.518;2023-02-12T08:41:20;101552.00;;;10.30
10058;BMP180;5068;51.286;7.518;2023-02-12T08:42:53;101564.00;;;10.30
10058;BMP180;5068;51.286;7.518;2023-02-12T08:44:26;101562.00;;;10.30
10058;BMP180;5068;51.286;7.518;2023-02-12T08:46:05;101562.00;;;10.30
10058;BMP180;5068;51.286;7.518;2023-02-12T08:47:40;101566.00;;;10.30
10058;BMP180;5068;51.286;7.518;2023-02-12T08:49:15;101567.00;;;10.30
10058;BMP180;5068;51.286;7.518;2023-02-12T08:50:49;101562.00;;;10.30
10058;BMP180;5068;51.286;7.518;2023-02-12T08:52:22;101566.00;;;10.40
10058;BMP180;5068;51.286;7.518;2023-02-12T08:53:58;101573.00;;;10.40
10058;BMP180;5068;51.286;7.518;2023-02-12T08:55:31;101570.00;;;10.40
10058;BMP180;5068;51.286;7.518;2023-02-12T08:57:05;101566.00;;;10.40
10058;BMP180;5068;51.286;7.518;2023-02-12T08:58:39;101547.00;;;10.50
10058;BMP180;5068;51.286;7.518;2023-02-12T09:00:13;101571.00;;;10.50
10058;BMP180;5068;51.286;7.518;2023-02-12T09:01:50;101566.00;;;10.50
10058;BMP180;5068;51.286;7.518;2023-02-12T09:03:25;101569.00;;;10.60
10058;BMP180;5068;51.286;7.518;2023-02-12T09:04:58;101572.00;;;10.60
10058;BMP180;5068;51.286;7.518;2023-02-12T09:06:34;101569.00;;;10.60
10058;BMP180;5068;51.286;7.518;2023-02-12T09:08:08;101569.00;;;10.70
10058;BMP180;5068;51.286;7.518;2023-02-12T09:09:41;101564.00;;;10.70
10058;BMP180;5068;51.286;7.518;2023-02-12T09:11:18;101561.00;;;10.70
10058;BMP180;5068;51.286;7.518;2023-02-12T09:12:51;101566.00;;;10.70
10058;BMP180;5068;51.286;7.518;2023-02-12T09:14:27;101567.00;;;10.80
10058;BMP180;5068;51.286;7.518;2023-02-12T09:16:02;101571.00;;;10.80
10058;BMP180;5068;51.286;7.518;2023-02-12T09:17:36;101574.00;;;10.80
10058;BMP180;5068;51.286;7.518;2023-02-12T09:19:13;101570.00;;;10.90
10058;BMP180;5068;51.286;7.518;2023-02-12T09:20:49;101569.00;;;10.90
10058;BMP180;5068;51.286;7.518;2023-02-12T09:22:22;101573.00;;;10.90
10058;BMP180;5068;51.286;7.518;2023-02-12T09:23:57;101573.00;;;11.00
10058;BMP180;5068;51.286;7.518;2023-02-12T09:25:30;101583.00;;;11.00
10058;BMP180;5068;51.286;7.518;2023-02-12T09:27:05;101577.00;;;11.00